Time;durP1;ratioP1;P1;durP2;ratioP2;P2;SDS_P1;SDS_P2;PMS_P1;PMS_P2;Temp;Humidity;BMP_temperature;BMP_pressure;BME280_temperature;BME280_humidity;BME280_pressure;Samples;Min_cycle;Max_cycle;Signal;HPM_P1;HPM_P2
2023/01/09 00:01:32;;;;;;;40.95;19.00;;;;;;;3.02;67.22;100262.09;3118933;28;20132;-75
2023/01/09 00:03:04;;;;;;;41.20;20.23;;;;;;;3.02;67.29;100267.25;3118418;28;20802;-75
2023/01/09 00:04:36;;;;;;;41.95;20.02;;;;;;;3.03;67.18;100268.09;3118324;28;20053;-76
2023/01/09 00:06:08;;;;;;;44.95;19.77;;;;;;;3.02;67.38;100259.53;3118606;28;20441;-74
2023/01/09 00:07:41;;;;;;;43.20;20.00;;;;;;;3.03;67.15;100258.66;3118507;28;20057;-75
2023/01/09 00:09:13;;;;;;;48.10;20.63;;;;;;;3.02;67.14;100256.97;3119342;28;20048;-75
2023/01/09 00:10:45;;;;;;;44.38;18.83;;;;;;;3.01;67.35;100252.66;3124263;28;20119;-75
2023/01/09 00:12:19;;;;;;;42.38;18.83;;;;;;;3.01;67.21;100256.97;3118320;28;20049;-75
2023/01/09 00:13:51;;;;;;;42.13;19.27;;;;;;;3.00;67.34;100253.53;3120970;28;20042;-74
2023/01/09 00:15:23;;;;;;;41.75;19.17;;;;;;;2.96;67.39;100247.56;3120981;28;20046;-74
2023/01/09 00:16:55;;;;;;;42.50;18.67;;;;;;;3.00;67.39;100253.53;3120390;28;20482;-74
2023/01/09 00:18:27;;;;;;;40.72;19.42;;;;;;;3.00;67.42;100255.25;3120442;28;20045;-74
2023/01/09 00:19:58;;;;;;;44.88;19.35;;;;;;;2.99;67.43;100256.97;3120922;28;20645;-74
2023/01/09 00:21:29;;;;;;;43.90;19.35;;;;;;;2.97;67.54;100249.25;3120737;28;20045;-75
2023/01/09 00:23:03;;;;;;;43.90;19.95;;;;;;;2.17;67.37;100119.53;3120624;28;20049;-74
2023/01/09 00:24:35;;;;;;;47.05;19.67;;;;;;;2.91;67.48;100248.47;3120450;28;20447;-76
2023/01/09 00:26:09;;;;;;;44.00;18.73;;;;;;;2.97;67.50;100253.56;3117992;28;20053;-74
2023/01/09 00:27:41;;;;;;;45.65;18.75;;;;;;;2.92;67.55;100242.44;3120813;28;20434;-74
2023/01/09 00:29:13;;;;;;;42.10;19.33;;;;;;;2.89;67.55;100234.75;3120391;28;20045;-73
2023/01/09 00:30:44;;;;;;;36.15;18.55;;;;;;;2.96;67.51;100257.00;3120528;28;20595;-74
2023/01/09 00:32:16;;;;;;;43.88;19.67;;;;;;;2.95;67.47;100252.69;3118460;28;20056;-74
2023/01/09 00:33:55;;;;;;;38.90;18.17;;;;;;;2.01;67.46;100114.47;3117272;28;20076;-75
2023/01/09 00:35:28;;;;;;;39.22;18.50;;;;;;;2.92;67.64;100256.16;3120701;28;20099;-74
2023/01/09 00:36:59;;;;;;;36.92;17.58;;;;;;;2.86;67.66;100245.91;3120509;28;20042;-74
2023/01/09 00:38:32;;;;;;;40.55;19.50;;;;;;;2.74;67.62;100221.13;3120324;28;20045;-74
2023/01/09 00:40:04;;;;;;;40.33;19.07;;;;;;;2.90;67.60;100245.03;3120665;28;20130;-75
2023/01/09 00:41:42;;;;;;;37.53;18.83;;;;;;;2.91;67.64;100258.75;3120582;28;20319;-75
2023/01/09 00:43:14;;;;;;;36.53;19.02;;;;;;;2.91;67.84;100253.59;3120510;28;20057;-75
2023/01/09 00:44:49;;;;;;;38.10;18.13;;;;;;;2.88;67.74;100244.19;3120621;28;20054;-75
2023/01/09 00:46:25;;;;;;;41.58;18.50;;;;;;;2.91;67.69;100251.88;3120768;28;20060;-75
2023/01/09 00:48:01;;;;;;;37.40;18.25;;;;;;;2.84;67.61;100232.22;3120296;28;20049;-75
2023/01/09 00:49:36;;;;;;;39.85;18.50;;;;;;;2.92;67.77;100239.88;3119189;28;20115;-74
2023/01/09 00:51:09;;;;;;;45.13;18.60;;;;;;;2.91;67.73;100233.88;3112577;28;20057;-75
2023/01/09 00:52:41;;;;;;;39.92;18.67;;;;;;;2.92;67.69;100243.28;3120215;28;20049;-75
2023/01/09 00:54:17;;;;;;;38.07;18.77;;;;;;;2.92;67.81;100243.28;3120389;28;20057;-76
2023/01/09 00:55:49;;;;;;;58.03;24.50;;;;;;;2.87;67.70;100233.88;3118394;28;20057;-75
2023/01/09 00:57:21;;;;;;;60.53;25.73;;;;;;;2.91;67.84;100240.75;3115206;28;20065;-75
2023/01/09 00:58:53;;;;;;;60.00;25.90;;;;;;;2.91;67.62;100239.00;3115340;28;20057;-76
2023/01/09 01:00:25;;;;;;;51.65;22.92;;;;;;;2.89;67.77;100240.72;3115375;28;20799;-75
2023/01/09 01:01:57;;;;;;;46.13;21.30;;;;;;;2.88;67.83;100236.47;3115434;28;20049;-76
2023/01/09 01:03:29;;;;;;;50.13;22.13;;;;;;;2.89;67.68;100239.88;3115607;28;20152;-74
2023/01/09 01:08:40;;;;;;;43.28;19.95;;;;;;;2.77;67.85;100243.38;3115061;28;20053;-74
2023/01/09 01:10:18;;;;;;;46.55;20.83;;;;;;;2.71;67.84;100228.84;3115419;28;20099;-76
2023/01/09 01:11:50;;;;;;;41.97;21.48;;;;;;;2.72;68.01;100234.84;3115149;28;20132;-75
2023/01/09 01:13:22;;;;;;;43.40;20.58;;;;;;;2.69;68.08;100240.00;3115180;28;20057;-76
2023/01/09 01:14:53;;;;;;;49.17;21.30;;;;;;;2.68;68.01;100234.00;3115258;28;20053;-75
2023/01/09 01:16:25;;;;;;;52.88;24.17;;;;;;;2.70;68.03;100236.59;3115399;28;20462;-74
2023/01/09 01:17:56;;;;;;;49.65;22.92;;;;;;;2.68;68.00;100217.72;3114881;28;20107;-74
2023/01/09 01:19:28;;;;;;;53.63;24.02;;;;;;;2.62;68.08;100217.78;3115111;28;20103;-75
2023/01/09 01:21:00;;;;;;;56.70;25.33;;;;;;;2.66;68.15;100224.59;3114503;28;20507;-75
2023/01/09 01:22:32;;;;;;;59.05;26.70;;;;;;;2.62;68.18;100221.19;3115140;28;20151;-75
2023/01/09 01:24:05;;;;;;;54.75;25.25;;;;;;;2.58;68.13;100211.81;3114906;28;20049;-75
2023/01/09 01:25:39;;;;;;;46.35;23.67;;;;;;;2.62;67.99;100216.06;3114658;28;20126;-75
2023/01/09 01:27:10;;;;;;;47.08;22.35;;;;;;;2.61;68.00;100218.66;3115053;28;20053;-76
2023/01/09 01:28:42;;;;;;;54.35;23.05;;;;;;;2.60;68.16;100209.22;3115430;28;20057;-74
2023/01/09 01:30:16;;;;;;;62.35;27.35;;;;;;;2.52;68.13;100205.84;3114887;28;20057;-74
2023/01/09 01:31:48;;;;;;;54.80;24.25;;;;;;;2.56;68.11;100216.09;3115022;28;20096;-76
2023/01/09 01:33:19;;;;;;;59.42;25.88;;;;;;;2.55;68.12;100216.13;3109017;28;20567;-76
2023/01/09 01:34:51;;;;;;;47.20;22.67;;;;;;;2.55;68.21;100203.25;3114736;28;20057;-74
2023/01/09 01:36:22;;;;;;;48.25;22.25;;;;;;;2.53;68.33;100204.97;3115203;28;20056;-74
2023/01/09 01:37:54;;;;;;;52.10;22.83;;;;;;;2.52;68.37;100203.28;3114718;28;20104;-74
2023/01/09 01:39:26;;;;;;;49.67;23.63;;;;;;;2.49;68.20;100205.00;3115126;28;20060;-75
2023/01/09 01:41:01;;;;;;;52.58;24.90;;;;;;;2.48;68.32;100199.84;3114860;28;20240;-75
2023/01/09 01:42:33;;;;;;;52.33;25.15;;;;;;;2.43;68.09;100191.34;3114585;28;20497;-75
2023/01/09 01:44:07;;;;;;;77.13;31.45;;;;;;;2.44;68.02;100195.59;3114981;28;20049;-75
2023/01/09 01:45:39;;;;;;;74.20;30.80;;;;;;;2.23;68.21;100163.16;3102741;28;20137;-75
2023/01/09 01:47:11;;;;;;;67.43;28.20;;;;;;;2.11;68.06;100140.13;3114304;28;20144;-74
2023/01/09 01:48:43;;;;;;;65.35;28.73;;;;;;;2.22;67.87;100164.88;3090412;28;20382;-75
2023/01/09 01:50:22;;;;;;;68.60;28.92;;;;;;;2.20;67.80;100158.03;3083708;28;20046;-74
2023/01/09 01:51:54;;;;;;;82.72;32.63;;;;;;;2.39;67.66;100187.91;3088809;28;20147;-75
2023/01/09 01:53:31;;;;;;;67.25;29.05;;;;;;;2.33;67.74;100179.38;3090420;28;20188;-75
2023/01/09 01:55:06;;;;;;;81.65;31.15;;;;;;;2.35;67.65;100185.38;3090008;28;20061;-75
2023/01/09 01:56:43;;;;;;;59.05;27.58;;;;;;;2.33;67.79;100182.78;3089922;28;20253;-76
2023/01/09 01:58:16;;;;;;;68.80;29.88;;;;;;;2.24;67.87;100164.88;3090605;28;20050;-74
2023/01/09 01:59:53;;;;;;;59.17;27.13;;;;;;;2.32;67.65;100177.69;3090219;28;20062;-74
2023/01/09 02:01:26;;;;;;;71.57;30.25;;;;;;;2.32;67.56;100180.25;3090344;28;20550;-75
2023/01/09 02:03:00;;;;;;;69.50;29.63;;;;;;;2.27;67.61;100172.56;3094376;28;20061;-75
2023/01/09 02:04:33;;;;;;;59.05;26.27;;;;;;;2.29;67.51;100173.41;3094943;28;20062;-74
2023/01/09 02:06:06;;;;;;;58.72;24.70;;;;;;;2.29;67.64;100173.41;3090408;28;20142;-74
2023/01/09 02:07:38;;;;;;;60.80;24.73;;;;;;;2.27;67.58;100172.56;3090251;28;20061;-74
2023/01/09 02:09:14;;;;;;;53.42;25.25;;;;;;;2.26;67.34;100166.56;3090286;28;20047;-75
2023/01/09 02:10:47;;;;;;;69.13;31.13;;;;;;;2.22;67.52;100164.88;3089979;28;20142;-74
2023/01/09 02:12:22;;;;;;;;;;;;;;;2.17;67.41;100164.06;3090724;28;20078;-74
2023/01/09 02:13:55;;;;;;;76.03;32.92;;;;;;;2.11;67.47;100158.94;3090134;28;20313;-74
2023/01/09 02:15:30;;;;;;;75.70;29.92;;;;;;;2.11;67.55;100158.09;3090118;28;20054;-73
2023/01/09 02:17:16;;;;;;;66.53;29.67;;;;;;;1.69;67.47;100085.53;3090287;28;20108;-74
2023/01/09 02:18:51;;;;;;;58.63;26.17;;;;;;;2.14;67.65;100155.50;3090237;28;20050;-74
2023/01/09 02:20:43;;;;;;;64.68;27.00;;;;;;;2.14;67.47;100158.09;3089967;28;20216;-74
2023/01/09 02:22:27;;;;;;;58.28;27.88;;;;;;;1.66;67.48;100080.41;3087806;28;20050;-74
2023/01/09 02:24:28;;;;;;;61.88;27.15;;;;;;;2.10;67.64;100153.81;3090024;28;20054;-74
2023/01/09 02:26:33;;;;;;;69.75;28.38;;;;;;;2.01;67.56;100155.56;3088904;28;20140;-74
2023/01/09 02:28:30;;;;;;;65.82;28.30;;;;;;;2.07;67.78;100161.53;3086863;28;20057;-74
2023/01/09 02:30:30;;;;;;;67.53;25.95;;;;;;;1.98;67.76;100145.31;3089818;28;20130;-74
2023/01/09 02:32:09;;;;;;;61.40;25.33;;;;;;;2.00;68.03;100147.84;3089871;28;20054;-74
2023/01/09 02:33:54;;;;;;;70.85;28.42;;;;;;;2.04;67.95;100153.00;3085429;28;20054;-74
2023/01/09 02:35:49;;;;;;;60.65;26.95;;;;;;;2.02;67.93;100149.56;3089458;28;20058;-74
2023/01/09 02:37:30;;;;;;;111.57;41.80;;;;;;;2.01;68.39;100142.72;3089846;28;20535;-75
2023/01/09 02:39:15;;;;;;;87.53;34.47;;;;;;;2.02;68.39;100149.56;3089780;28;20054;-75
2023/01/09 02:40:56;;;;;;;78.50;30.38;;;;;;;2.03;68.41;100145.28;3089695;28;20192;-75
2023/01/09 02:42:29;;;;;;;68.60;28.48;;;;;;;1.98;68.16;100134.16;3078073;28;20113;-74
2023/01/09 02:44:16;;;;;;;60.50;26.13;;;;;;;2.02;68.18;100138.44;3077933;28;20453;-75
2023/01/09 02:45:49;;;;;;;56.28;26.40;;;;;;;2.00;68.41;100137.59;3077987;28;20054;-74
2023/01/09 02:47:40;;;;;;;48.47;22.40;;;;;;;2.03;68.41;100142.72;3091925;28;20055;-75
2023/01/09 02:49:15;;;;;;;50.25;21.67;;;;;;;2.03;68.48;100135.84;3103307;28;20108;-74
2023/01/09 02:50:58;;;;;;;55.78;23.02;;;;;;;2.03;68.50;100132.44;3103700;28;20065;-75
2023/01/09 02:52:44;;;;;;;49.58;20.83;;;;;;;1.98;68.70;100124.78;3116212;28;20081;-74
2023/01/09 02:54:28;;;;;;;50.58;22.88;;;;;;;2.01;68.67;100129.00;3114086;28;20053;-74
2023/01/09 02:56:15;;;;;;;44.40;21.02;;;;;;;2.01;68.54;100132.47;3114074;28;20045;-75
2023/01/09 02:58:00;;;;;;;47.55;21.48;;;;;;;1.99;68.78;100135.88;3113889;28;20125;-75
2023/01/09 02:59:35;;;;;;;59.45;25.17;;;;;;;1.99;68.81;100135.88;3114224;28;20049;-75
2023/01/09 03:01:24;;;;;;;50.45;22.92;;;;;;;1.18;68.67;100005.31;3113842;28;20057;-75
2023/01/09 03:03:06;;;;;;;50.75;22.55;;;;;;;1.97;69.07;100130.75;3114118;28;20107;-74
2023/01/09 03:04:49;;;;;;;47.60;21.45;;;;;;;1.94;68.80;100125.63;3114141;28;20060;-74
2023/01/09 03:06:29;;;;;;;53.58;23.35;;;;;;;1.97;68.73;100138.44;3113771;28;20583;-74
2023/01/09 03:08:05;;;;;;;55.97;23.40;;;;;;;1.80;68.81;100109.41;3113946;28;20122;-74
2023/01/09 03:09:41;;;;;;;44.85;20.60;;;;;;;1.89;68.92;100135.06;3114944;28;20053;-74
2023/01/09 03:11:12;;;;;;;44.17;21.92;;;;;;;1.90;68.84;100143.63;3115926;28;20104;-74
2023/01/09 03:12:47;;;;;;;46.78;21.23;;;;;;;1.57;68.83;100092.41;3114561;28;20225;-74
2023/01/09 03:14:23;;;;;;;44.08;19.73;;;;;;;1.81;68.96;100141.97;3113972;28;20049;-74
2023/01/09 03:15:57;;;;;;;47.22;21.85;;;;;;;1.78;69.18;100144.53;3113871;28;20119;-74
2023/01/09 03:17:36;;;;;;;45.28;21.45;;;;;;;1.74;69.17;100145.41;3113733;28;20106;-73
2023/01/09 03:19:16;;;;;;;56.97;23.50;;;;;;;1.69;69.37;100137.72;3113863;28;20065;-74
2023/01/09 03:20:49;;;;;;;44.95;21.73;;;;;;;1.55;69.42;100113.81;3113687;28;20053;-74
2023/01/09 03:22:20;;;;;;;48.10;22.13;;;;;;;1.63;69.54;100136.88;3113708;28;20161;-74
2023/01/09 03:23:54;;;;;;;40.75;21.13;;;;;;;1.61;69.74;100136.91;3113719;28;20085;-74
2023/01/09 03:25:27;;;;;;;52.63;23.17;;;;;;;1.62;69.68;100137.75;3114018;28;20053;-74
2023/01/09 03:27:00;;;;;;;45.40;20.55;;;;;;;1.63;69.90;100132.63;3113729;28;20061;-75
2023/01/09 03:28:32;;;;;;;51.70;22.98;;;;;;;1.62;70.01;100137.75;3113775;28;20054;-74
2023/01/09 03:30:05;;;;;;;50.70;23.63;;;;;;;1.23;70.06;100071.13;3113552;28;20053;-75
2023/01/09 03:31:37;;;;;;;48.47;22.00;;;;;;;1.22;70.04;100069.44;3113976;28;20064;-74
2023/01/09 03:33:10;;;;;;;46.78;22.08;;;;;;;1.60;70.24;100127.50;3107575;28;20545;-75
2023/01/09 03:34:41;;;;;;;;;;;;;;;1.61;70.13;100139.47;3113905;28;20070;-74
2023/01/09 03:36:16;;;;;;;51.63;22.15;;;;;;;1.51;70.20;100118.13;3113731;28;19925;-75
2023/01/09 03:37:48;;;;;;;46.90;21.48;;;;;;;1.61;70.30;100133.47;3113625;28;20119;-76
2023/01/09 03:39:20;;;;;;;48.20;22.48;;;;;;;1.62;70.43;100135.16;3113739;28;20049;-75
2023/01/09 03:40:52;;;;;;;49.03;21.70;;;;;;;1.20;70.28;100070.28;3113778;28;20049;-75
2023/01/09 03:42:23;;;;;;;47.03;21.75;;;;;;;1.64;70.42;100139.44;3114058;28;20057;-75
2023/01/09 03:43:55;;;;;;;41.30;21.33;;;;;;;1.67;70.52;100136.03;3113416;28;20548;-75
2023/01/09 03:45:27;;;;;;;48.83;22.02;;;;;;;1.68;70.45;100140.28;3113744;28;20140;-75
2023/01/09 03:46:59;;;;;;;51.75;20.25;;;;;;;1.69;70.32;100129.19;3114988;28;20111;-75
2023/01/09 03:48:32;;;;;;;44.17;19.23;;;;;;;1.72;70.40;100134.28;3116067;28;20433;-76
2023/01/09 03:50:05;;;;;;;41.70;19.73;;;;;;;1.71;70.37;100135.13;3110589;28;20439;-76
2023/01/09 03:51:37;;;;;;;38.92;19.40;;;;;;;1.60;70.61;100114.66;3112605;28;20049;-74
2023/01/09 03:53:09;;;;;;;39.10;19.38;;;;;;;1.76;70.44;100129.13;3115768;28;20053;-75
2023/01/09 03:54:41;;;;;;;43.60;20.02;;;;;;;1.79;70.34;100129.13;3115851;28;20049;-74
2023/01/09 03:56:13;;;;;;;47.75;20.13;;;;;;;1.66;70.52;100109.50;3116156;28;20057;-74
2023/01/09 03:57:45;;;;;;;41.83;20.15;;;;;;;1.81;70.40;100129.13;3115678;28;20305;-75
2023/01/09 03:59:17;;;;;;;43.38;20.45;;;;;;;1.81;70.25;100129.13;3116008;28;20115;-74
2023/01/09 04:00:51;;;;;;;40.70;19.58;;;;;;;1.65;70.37;100112.91;3116033;28;20042;-75
2023/01/09 04:02:22;;;;;;;;;;;;;;;1.74;70.33;100130.00;3115904;28;20123;-74
2023/01/09 04:03:55;;;;;;;46.38;19.65;;;;;;;1.74;70.33;100135.13;3116338;28;19933;-74
2023/01/09 04:05:27;;;;;;;43.70;21.88;;;;;;;1.72;70.45;100139.44;3116098;28;20049;-74
2023/01/09 04:07:00;;;;;;;46.25;23.50;;;;;;;1.72;70.39;100134.28;3116022;28;20050;-75
2023/01/09 04:08:32;;;;;;;40.20;18.73;;;;;;;1.70;70.43;100138.56;3115876;28;20156;-74
2023/01/09 04:10:04;;;;;;;41.60;19.23;;;;;;;1.66;70.48;100137.75;3115892;28;20053;-75
2023/01/09 04:11:36;;;;;;;44.87;19.63;;;;;;;1.64;70.50;100138.59;3115584;28;20057;-75
2023/01/09 04:13:08;;;;;;;42.03;19.70;;;;;;;1.60;70.46;100137.75;3126480;28;20053;-74
2023/01/09 04:14:40;;;;;;;35.38;18.38;;;;;;;1.54;70.83;100132.66;3115988;28;20057;-75
2023/01/09 04:16:12;;;;;;;41.47;19.67;;;;;;;1.56;70.55;100139.47;3115875;28;20057;-75
2023/01/09 04:17:44;;;;;;;37.45;18.25;;;;;;;1.54;70.72;100143.78;3116097;28;20514;-75
2023/01/09 04:19:17;;;;;;;41.90;19.02;;;;;;;1.53;70.56;100142.03;3112942;28;20111;-74
2023/01/09 04:20:49;;;;;;;;;;;;;;;1.46;70.46;100145.50;3116206;28;20053;-75
2023/01/09 04:22:21;;;;;;;43.67;18.58;;;;;;;1.29;70.67;100124.16;3115953;28;19931;-74
2023/01/09 04:23:52;;;;;;;41.90;20.58;;;;;;;1.45;70.68;100142.91;3115522;28;20115;-74
2023/01/09 04:25:24;;;;;;;43.60;20.40;;;;;;;1.43;70.83;100148.06;3115733;28;20080;-75
2023/01/09 04:26:56;;;;;;;40.00;19.23;;;;;;;1.42;70.85;100141.25;3115567;28;20060;-75
2023/01/09 04:28:28;;;;;;;41.75;19.83;;;;;;;1.41;70.79;100146.34;3115707;28;20095;-75
2023/01/09 04:30:00;;;;;;;35.90;18.50;;;;;;;0.68;70.76;100028.53;3115704;28;20625;-75
2023/01/09 04:31:32;;;;;;;40.60;19.52;;;;;;;1.43;70.94;100152.34;3115748;28;20119;-75
2023/01/09 04:33:04;;;;;;;46.28;20.30;;;;;;;1.41;71.10;100152.34;3113940;28;20063;-76
2023/01/09 04:34:38;;;;;;;44.38;20.38;;;;;;;1.36;71.19;100149.81;3115839;28;20058;-75
2023/01/09 04:36:10;;;;;;;38.13;19.60;;;;;;;1.43;71.14;100157.47;3115761;28;20057;-76
2023/01/09 04:37:42;;;;;;;41.30;20.20;;;;;;;1.24;71.06;100124.19;3115460;28;20053;-76
2023/01/09 04:39:14;;;;;;;41.13;19.88;;;;;;;1.44;71.15;100157.47;3115752;28;20049;-76
2023/01/09 04:40:47;;;;;;;41.55;19.95;;;;;;;0.81;71.06;100052.44;3115855;28;20118;-75
2023/01/09 04:42:18;;;;;;;40.33;20.05;;;;;;;1.47;70.99;100162.59;3115565;28;20076;-76
2023/01/09 04:43:50;;;;;;;39.05;19.38;;;;;;;1.47;71.12;100160.03;3115511;28;20049;-75
2023/01/09 04:45:22;;;;;;;46.10;19.58;;;;;;;1.46;71.13;100165.19;3115266;28;20552;-75
2023/01/09 04:46:56;;;;;;;40.10;19.45;;;;;;;1.44;70.99;100170.28;3115355;28;20132;-75
2023/01/09 04:48:52;;;;;;;38.30;19.92;;;;;;;1.25;71.12;100146.41;3115816;28;20522;-75
2023/01/09 04:50:25;;;;;;;40.05;19.52;;;;;;;1.38;71.24;100172.88;3091869;28;20694;-75
2023/01/09 04:51:56;;;;;;;;;;;;;;;1.31;71.13;100169.47;3114765;28;20586;-74
2023/01/09 04:53:28;;;;;;;43.17;18.75;;;;;;;1.25;71.46;100159.22;3115122;28;19924;-74
2023/01/09 04:55:00;;;;;;;38.25;19.50;;;;;;;1.30;71.42;100166.91;3115568;28;20057;-74
2023/01/09 04:56:32;;;;;;;38.88;19.35;;;;;;;1.30;nan;100166.91;3114152;28;20065;-73
2023/01/09 04:58:04;;;;;;;49.53;21.17;;;;;;;1.23;71.53;100155.78;3113561;28;20564;-75
2023/01/09 04:59:36;;;;;;;45.88;21.27;;;;;;;1.29;71.71;100160.91;3114739;28;20484;-74
2023/01/09 05:01:08;;;;;;;45.33;21.08;;;;;;;1.30;71.68;100160.09;3114906;28;20092;-74
2023/01/09 05:02:40;;;;;;;46.95;20.65;;;;;;;1.31;71.61;100172.03;3115153;28;20152;-70
2023/01/09 05:04:13;;;;;;;40.42;19.35;;;;;;;1.22;71.66;100138.69;3114675;28;20123;-72
2023/01/09 05:05:46;;;;;;;43.33;20.60;;;;;;;1.18;71.72;100147.25;3115581;28;20086;-73
2023/01/09 05:07:18;;;;;;;48.58;20.17;;;;;;;1.29;71.61;100158.34;3115311;28;20849;-75
2023/01/09 05:08:50;;;;;;;51.03;21.33;;;;;;;1.28;71.80;100156.66;3115056;28;20060;-71
2023/01/09 05:10:22;;;;;;;48.20;19.17;;;;;;;1.29;71.70;100160.06;3115112;28;20853;-68
2023/01/09 05:11:54;;;;;;;55.15;25.17;;;;;;;1.17;71.88;100140.41;3115402;28;20049;-72
2023/01/09 05:13:26;;;;;;;54.13;24.08;;;;;;;1.35;71.97;100157.50;3115593;28;20041;-67
2023/01/09 05:14:58;;;;;;;42.58;21.92;;;;;;;1.38;72.06;100161.75;3115021;28;20084;-69
2023/01/09 05:16:30;;;;;;;44.42;21.27;;;;;;;1.32;72.14;100157.50;3114789;28;20510;-70
2023/01/09 05:18:02;;;;;;;41.60;20.67;;;;;;;1.38;72.14;100159.19;3115226;28;20119;-71
2023/01/09 05:19:34;;;;;;;43.15;19.52;;;;;;;1.30;72.25;100143.81;3115150;28;20049;-75
2023/01/09 05:21:08;;;;;;;50.40;20.77;;;;;;;1.45;72.13;100160.88;3114707;28;20115;-73
2023/01/09 05:22:39;;;;;;;;;;;;;;;1.40;72.00;100155.78;3115584;28;20373;-72
2023/01/09 05:24:11;;;;;;;42.47;19.58;;;;;;;1.40;72.10;100158.34;3115352;28;20410;-70
2023/01/09 05:25:43;;;;;;;39.55;19.40;;;;;;;1.41;71.92;100154.91;3114827;28;20602;-74
2023/01/09 05:27:15;;;;;;;41.53;19.98;;;;;;;1.47;72.04;100162.59;3115116;28;20053;-73
2023/01/09 05:28:47;;;;;;;43.70;19.88;;;;;;;1.49;71.92;100163.44;3114962;28;20057;-71
2023/01/09 05:30:19;;;;;;;43.47;20.27;;;;;;;1.35;71.88;100134.41;3114453;28;20067;-74
2023/01/09 05:31:51;;;;;;;39.05;19.00;;;;;;;1.52;71.65;100165.16;3115064;28;20055;-72
2023/01/09 05:33:23;;;;;;;48.40;20.40;;;;;;;1.36;71.60;100142.09;3103458;28;20080;-73
2023/01/09 05:34:55;;;;;;;56.40;26.50;;;;;;;1.53;71.79;100165.13;3113878;28;20127;-73
2023/01/09 05:36:28;;;;;;;50.25;25.65;;;;;;;1.54;71.93;100164.31;3114859;28;20053;-73
2023/01/09 05:38:00;;;;;;;55.80;26.15;;;;;;;1.52;71.92;100166.00;3114865;28;20111;-74
2023/01/09 05:39:32;;;;;;;47.95;20.73;;;;;;;0.78;72.08;100031.06;3114537;28;20054;-73
2023/01/09 05:41:04;;;;;;;37.42;19.52;;;;;;;1.57;72.16;100156.59;3109931;28;20045;-72
2023/01/09 05:42:36;;;;;;;40.38;18.77;;;;;;;1.60;72.10;100163.44;3113647;28;20053;-72
2023/01/09 05:44:08;;;;;;;48.80;20.20;;;;;;;1.60;72.01;100158.28;3115255;28;20137;-69
2023/01/09 05:45:40;;;;;;;36.47;19.63;;;;;;;1.61;72.00;100156.59;3113158;28;20833;-69
2023/01/09 05:47:12;;;;;;;50.25;20.23;;;;;;;1.61;71.93;100160.00;3114030;28;20486;-70
2023/01/09 05:48:44;;;;;;;41.92;20.00;;;;;;;1.64;72.17;100157.41;3114494;28;20155;-70
2023/01/09 05:50:16;;;;;;;38.45;19.23;;;;;;;1.66;72.21;100162.56;3113266;28;20099;-70
2023/01/09 05:51:48;;;;;;;37.20;18.83;;;;;;;1.63;72.12;100144.56;3113537;28;20548;-71
2023/01/09 05:53:20;;;;;;;35.65;17.58;;;;;;;1.66;71.92;100148.00;3113659;28;20545;-70
2023/01/09 05:54:52;;;;;;;39.15;17.88;;;;;;;1.74;72.01;100147.97;3113771;28;20210;-71
2023/01/09 05:56:24;;;;;;;37.33;18.65;;;;;;;1.76;72.09;100152.25;3113512;28;20544;-70
2023/01/09 05:57:56;;;;;;;41.45;18.27;;;;;;;1.73;72.10;100139.41;3114109;28;20049;-69
2023/01/09 05:59:28;;;;;;;42.42;18.63;;;;;;;1.82;72.02;100156.50;3114426;28;20046;-70
2023/01/09 06:01:00;;;;;;;42.83;18.90;;;;;;;1.75;71.90;100142.00;3114159;28;20107;-70
2023/01/09 06:02:32;;;;;;;36.58;18.48;;;;;;;1.77;71.85;100150.50;3114704;28;20053;-70
2023/01/09 06:04:04;;;;;;;37.50;18.40;;;;;;;1.79;71.67;100156.50;3114685;28;20107;-71
2023/01/09 06:05:36;;;;;;;39.88;19.13;;;;;;;1.73;71.71;100153.97;3114012;28;20049;-70
2023/01/09 06:07:09;;;;;;;37.17;18.42;;;;;;;1.78;71.70;100154.81;3116574;28;20107;-70
2023/01/09 06:08:40;;;;;;;;;;;;;;;1.74;71.63;100161.66;3114047;28;20072;-70
2023/01/09 06:10:13;;;;;;;37.15;18.30;;;;;;;1.71;71.77;100155.69;3113532;28;20326;-70
2023/01/09 06:11:45;;;;;;;41.83;18.95;;;;;;;1.75;71.83;100159.97;3114295;28;20053;-70
2023/01/09 06:13:16;;;;;;;46.78;20.30;;;;;;;1.66;71.66;100147.16;3107367;28;20107;-70
2023/01/09 06:14:48;;;;;;;40.10;18.83;;;;;;;1.68;71.79;100150.56;3113520;28;20052;-67
2023/01/09 06:16:20;;;;;;;44.63;19.60;;;;;;;1.79;71.82;100159.09;3109732;28;20111;-66
2023/01/09 06:17:52;;;;;;;41.13;20.00;;;;;;;1.82;71.67;100153.94;3113072;28;20052;-69
2023/01/09 06:19:24;;;;;;;47.65;23.00;;;;;;;1.85;71.57;100164.19;3113948;28;20096;-69
2023/01/09 06:20:56;;;;;;;59.00;25.65;;;;;;;1.87;71.62;100154.78;3114375;28;20056;-69
2023/01/09 06:22:29;;;;;;;43.00;20.55;;;;;;;1.89;71.83;100154.75;3114207;28;20184;-69
2023/01/09 06:24:01;;;;;;;76.28;30.20;;;;;;;1.48;71.82;100081.31;3114083;28;20053;-70
2023/01/09 06:25:33;;;;;;;46.58;24.25;;;;;;;1.88;71.79;100147.91;3114230;28;20144;-69
2023/01/09 06:27:05;;;;;;;56.40;24.75;;;;;;;1.62;71.78;100100.09;3114103;28;20049;-76
2023/01/09 06:28:37;;;;;;;43.60;20.00;;;;;;;1.95;71.86;100153.03;3114101;28;20054;-69
2023/01/09 06:30:11;;;;;;;35.28;17.90;;;;;;;1.97;71.78;100148.72;3110413;28;20392;-69
2023/01/09 06:31:42;;;;;;;;;;;;;;;1.95;71.65;100153.03;3102921;28;20068;-68
2023/01/09 06:33:14;;;;;;;41.47;19.52;;;;;;;1.88;71.70;100138.50;3114933;28;19960;-69
2023/01/09 06:34:46;;;;;;;40.70;20.20;;;;;;;2.01;71.49;100145.31;3114828;28;20113;-71
2023/01/09 06:36:18;;;;;;;39.72;20.63;;;;;;;1.99;71.31;100135.88;3115142;28;20059;-69
2023/01/09 06:37:51;;;;;;;42.08;20.00;;;;;;;2.07;71.36;100138.41;3114938;28;20079;-70
2023/01/09 06:39:23;;;;;;;48.13;20.10;;;;;;;2.11;71.31;100142.69;3114810;28;20053;-69
2023/01/09 06:40:54;;;;;;;39.22;20.50;;;;;;;2.14;71.11;100150.38;3113267;28;20128;-69
2023/01/09 06:42:25;;;;;;;49.88;21.13;;;;;;;2.15;71.21;100147.78;3110620;28;20049;-71
2023/01/09 06:43:57;;;;;;;47.75;20.80;;;;;;;2.19;71.22;100154.63;3115091;28;20084;-72
2023/01/09 06:45:29;;;;;;;66.13;24.77;;;;;;;2.00;71.12;100111.91;3115165;28;20045;-71
2023/01/09 06:47:01;;;;;;;128.80;37.90;;;;;;;2.22;71.14;100139.19;3114932;28;20148;-72
2023/01/09 06:48:34;;;;;;;119.40;34.33;;;;;;;2.18;71.16;100144.34;3118145;28;20111;-69
2023/01/09 06:50:06;;;;;;;123.47;36.85;;;;;;;2.25;71.05;100143.47;3110490;28;20510;-69
2023/01/09 06:51:38;;;;;;;81.07;28.80;;;;;;;2.26;71.11;100142.59;3119412;28;20533;-68
2023/01/09 06:53:11;;;;;;;58.42;23.38;;;;;;;2.24;71.24;100131.47;3120092;28;20053;-70
2023/01/09 06:54:43;;;;;;;47.42;22.58;;;;;;;2.30;70.98;100146.84;3119858;28;20134;-70
2023/01/09 06:56:15;;;;;;;50.63;22.95;;;;;;;2.32;71.09;100147.69;3120231;28;20060;-69
2023/01/09 06:57:47;;;;;;;49.13;22.08;;;;;;;2.33;71.29;100146.81;3107986;28;20540;-70
2023/01/09 06:59:19;;;;;;;51.50;21.00;;;;;;;2.36;71.02;100148.53;3119557;28;20107;-74
2023/01/09 07:00:52;;;;;;;41.95;19.20;;;;;;;2.37;71.27;100153.66;3119584;28;20068;-72
2023/01/09 07:02:24;;;;;;;46.17;20.98;;;;;;;2.30;71.05;100140.84;3119940;28;20450;-72
2023/01/09 07:03:56;;;;;;;43.42;20.25;;;;;;;2.30;71.34;100141.69;3121815;28;20109;-73
2023/01/09 07:05:28;;;;;;;39.00;20.63;;;;;;;2.35;71.21;100145.09;3124696;28;20091;-70
2023/01/09 07:07:00;;;;;;;45.55;20.17;;;;;;;2.37;71.24;100145.97;3124319;28;20053;-73
2023/01/09 07:08:33;;;;;;;48.97;22.15;;;;;;;2.37;71.29;100143.38;3121382;28;20041;-72
2023/01/09 07:10:05;;;;;;;46.13;21.25;;;;;;;2.35;71.16;100134.81;3119823;28;20430;-68
2023/01/09 07:11:37;;;;;;;49.80;21.27;;;;;;;2.45;71.30;100146.72;3119943;28;20057;-68
2023/01/09 07:13:09;;;;;;;44.92;21.75;;;;;;;2.45;71.19;100156.16;3119674;28;20115;-68
2023/01/09 07:14:41;;;;;;;51.50;22.48;;;;;;;2.47;71.10;100146.75;3119995;28;20049;-68
2023/01/09 07:16:13;;;;;;;51.60;24.25;;;;;;;2.55;71.03;100154.41;3119594;28;20464;-69
2023/01/09 07:17:45;;;;;;;48.28;20.95;;;;;;;2.58;70.90;100154.41;3120038;28;20049;-68